createdAt,value
2022-12-20T00:00:01.584Z,96235.94
2022-12-20T00:02:55.661Z,96229.31
2022-12-20T00:05:47.611Z,96219.28
2022-12-20T00:08:21.706Z,96222.66
2022-12-20T00:11:09.590Z,96222.78
2022-12-20T00:13:42.691Z,96222.00
2022-12-20T00:16:31.602Z,96222.78
2022-12-20T00:19:16.615Z,96217.06
2022-12-20T00:22:03.608Z,96217.91
2022-12-20T00:24:43.617Z,96221.34
2022-12-20T00:27:30.608Z,96221.44
2022-12-20T00:30:03.671Z,96223.00
2022-12-20T00:32:50.623Z,96223.00
2022-12-20T00:35:30.633Z,96218.84
2022-12-20T00:38:17.599Z,96223.13
2022-12-20T00:40:50.687Z,96216.41
2022-12-20T00:43:38.636Z,96212.34
2022-12-20T00:46:12.671Z,96204.91
2022-12-20T00:49:00.639Z,96215.84
2022-12-20T00:51:36.690Z,96214.34
2022-12-20T00:54:23.644Z,96217.00
2022-12-20T00:57:03.608Z,96215.41
2022-12-20T00:59:57.599Z,96202.16
2022-12-20T01:02:44.705Z,96201.38
2022-12-20T01:05:17.725Z,96194.78
2022-12-20T01:08:04.635Z,96192.41
2022-12-20T01:10:37.688Z,96187.50
2022-12-20T01:13:24.600Z,96190.06
2022-12-20T01:15:57.717Z,96182.56
2022-12-20T01:18:44.607Z,96188.34
2022-12-20T01:21:21.209Z,96184.25
2022-12-20T01:24:07.620Z,96178.50
2022-12-20T01:26:47.641Z,96181.16
2022-12-20T01:29:34.625Z,96173.72
2022-12-20T01:32:07.754Z,96167.84
2022-12-20T01:34:54.615Z,96168.69
2022-12-20T01:37:27.767Z,96174.66
2022-12-20T01:40:16.646Z,96171.41
2022-12-20T01:42:49.956Z,96160.59
2022-12-20T01:45:44.649Z,96154.06
2022-12-20T01:48:32.619Z,96151.69
2022-12-20T01:51:12.622Z,96149.09
2022-12-20T01:54:04.633Z,96137.41
2022-12-20T01:56:37.691Z,96142.44
2022-12-20T01:59:24.652Z,96138.44
2022-12-20T02:02:04.876Z,96138.56
2022-12-20T02:04:58.647Z,96135.31
2022-12-20T02:07:45.640Z,96145.56
2022-12-20T02:10:26.586Z,96142.28
2022-12-20T02:13:28.649Z,96140.69
2022-12-20T02:16:23.684Z,96138.19
2022-12-20T02:20:09.651Z,96137.31
2022-12-20T02:23:38.633Z,96133.09
2022-12-20T02:26:46.647Z,96131.44
2022-12-20T02:29:44.660Z,96137.31
2022-12-20T02:32:42.652Z,96137.31
2022-12-20T02:35:32.642Z,96132.28
2022-12-20T02:38:08.708Z,96130.59
2022-12-20T02:40:58.667Z,96127.25
2022-12-20T02:43:53.533Z,96118.88
2022-12-20T02:46:49.637Z,96118.97
2022-12-20T02:49:49.632Z,96119.81
2022-12-20T02:52:38.653Z,96121.50
2022-12-20T02:55:13.747Z,96115.72
2022-12-20T02:58:09.659Z,96111.63
2022-12-20T03:00:49.734Z,96112.56
2022-12-20T03:03:42.675Z,96108.47
2022-12-20T03:06:22.651Z,96106.88
2022-12-20T03:09:16.646Z,96104.56
2022-12-20T03:12:03.663Z,96107.00
2022-12-20T03:14:36.764Z,96102.91
2022-12-20T03:17:23.663Z,96107.97
2022-12-20T03:20:03.665Z,96098.75
2022-12-20T03:22:50.692Z,96098.75
2022-12-20T03:25:23.777Z,96094.53
2022-12-20T03:28:10.703Z,96100.41
2022-12-20T03:30:43.835Z,96097.03
2022-12-20T03:33:30.682Z,96099.47
2022-12-20T03:36:03.743Z,96097.03
2022-12-20T03:38:50.689Z,96087.88
2022-12-20T03:41:23.795Z,96088.69
2022-12-20T03:44:12.799Z,96081.16
2022-12-20T03:46:46.222Z,96084.59
2022-12-20T03:49:32.693Z,96076.34
2022-12-20T03:52:05.840Z,96067.94
2022-12-20T03:54:55.676Z,96054.59
2022-12-20T03:57:36.689Z,96049.72
2022-12-20T04:00:23.720Z,96057.28
2022-12-20T04:02:57.017Z,96058.22
2022-12-20T04:05:43.706Z,96050.81
2022-12-20T04:08:23.697Z,96051.59
2022-12-20T04:11:24.691Z,96060.72
2022-12-20T04:13:59.817Z,96064.03
2022-12-20T04:16:48.690Z,96070.78
2022-12-20T04:19:21.774Z,96080.09
2022-12-20T04:22:10.707Z,96074.28
2022-12-20T04:24:44.787Z,96080.09
2022-12-20T04:27:31.724Z,96077.53
2022-12-20T04:30:04.780Z,96076.81
2022-12-20T04:32:51.742Z,96069.31
2022-12-20T04:35:24.787Z,96070.19
2022-12-20T04:38:12.698Z,96067.69
2022-12-20T04:40:45.787Z,96066.88
2022-12-20T04:43:34.740Z,96072.00
2022-12-20T04:46:08.821Z,96067.81
2022-12-20T04:48:58.399Z,96065.41
2022-12-20T04:51:34.791Z,96068.84
2022-12-20T04:54:21.724Z,96055.53
2022-12-20T04:57:02.739Z,96063.16
2022-12-20T04:59:58.736Z,96052.31
2022-12-20T05:02:54.872Z,96054.03
2022-12-20T05:05:50.695Z,96046.56
2022-12-20T05:08:37.763Z,96046.69
2022-12-20T05:11:20.735Z,96047.53
2022-12-20T05:14:16.701Z,96041.72
2022-12-20T05:17:10.749Z,96040.13
2022-12-20T05:19:58.740Z,96036.75
2022-12-20T05:22:51.739Z,96041.03
2022-12-20T05:25:58.696Z,96036.00
2022-12-20T05:28:31.841Z,96044.53
2022-12-20T05:31:18.752Z,96035.22
2022-12-20T05:33:52.780Z,96033.56
2022-12-20T05:36:39.744Z,96034.41
2022-12-20T05:39:12.860Z,96028.69
2022-12-20T05:42:00.739Z,96034.50
2022-12-20T05:44:40.739Z,96036.22
2022-12-20T05:47:34.747Z,96037.06
2022-12-20T05:50:23.847Z,96032.84
2022-12-20T05:52:57.134Z,96026.09
2022-12-20T05:55:43.735Z,96032.66
2022-12-20T05:58:16.904Z,96036.88
2022-12-20T06:01:03.739Z,96038.53
2022-12-20T06:03:36.949Z,96033.38
2022-12-20T06:06:23.729Z,96030.78
2022-12-20T06:08:56.778Z,96033.31
2022-12-20T06:11:43.730Z,96045.84
2022-12-20T06:14:16.785Z,96038.22
2022-12-20T06:17:03.747Z,96041.53
2022-12-20T06:19:36.842Z,96036.50
2022-12-20T06:22:23.721Z,96042.31
2022-12-20T06:25:03.775Z,96037.25
2022-12-20T06:27:57.794Z,96030.50
2022-12-20T06:30:51.732Z,96034.66
2022-12-20T06:33:38.787Z,96034.53
2022-12-20T06:36:11.801Z,96035.31
2022-12-20T06:38:58.742Z,96037.00
2022-12-20T06:41:38.754Z,96036.13
2022-12-20T06:44:32.747Z,96041.94
2022-12-20T06:47:26.740Z,96045.19
2022-12-20T06:50:21.746Z,96035.13
2022-12-20T06:53:08.749Z,96030.03
2022-12-20T06:55:41.811Z,96031.69
2022-12-20T06:58:28.768Z,96035.88
2022-12-20T07:01:01.896Z,96042.59
2022-12-20T07:03:48.805Z,96037.56
2022-12-20T07:06:28.751Z,96036.81
2022-12-20T07:09:15.730Z,96043.47
2022-12-20T07:11:48.805Z,96047.69
2022-12-20T07:14:35.753Z,96041.88
2022-12-20T07:17:16.753Z,96039.44
2022-12-20T07:20:14.357Z,96033.56
2022-12-20T07:23:01.751Z,96036.06
2022-12-20T07:25:41.751Z,96031.91
2022-12-20T07:28:36.820Z,96033.00
2022-12-20T07:31:23.812Z,96030.78
2022-12-20T07:33:57.822Z,96029.34
2022-12-20T07:36:44.748Z,96022.03
2022-12-20T07:39:25.764Z,96019.72
2022-12-20T07:42:15.386Z,96023.47
2022-12-20T07:44:49.823Z,96016.88
2022-12-20T07:47:37.760Z,96021.34
2022-12-20T07:50:18.799Z,96020.75
2022-12-20T07:53:14.833Z,96015.97
2022-12-20T07:56:03.747Z,96006.88
2022-12-20T07:58:38.874Z,96005.47
2022-12-20T08:01:33.963Z,96007.38
2022-12-20T08:04:19.763Z,96008.31
2022-12-20T08:07:17.049Z,96007.72
2022-12-20T08:10:03.749Z,95997.75
2022-12-20T08:12:38.337Z,95999.41
2022-12-20T08:15:25.749Z,95994.50
2022-12-20T08:18:05.767Z,96005.47
2022-12-20T08:20:59.762Z,96005.66
2022-12-20T08:23:46.798Z,95996.44
2022-12-20T08:26:19.845Z,95999.00
2022-12-20T08:29:08.812Z,96000.84
2022-12-20T08:31:50.399Z,96002.56
2022-12-20T08:34:37.748Z,96008.50
2022-12-20T08:37:17.812Z,96005.41
2022-12-20T08:40:11.779Z,96003.94
2022-12-20T08:42:58.804Z,95995.72
2022-12-20T08:45:31.837Z,96004.28
2022-12-20T08:48:20.830Z,95997.78
2022-12-20T08:51:01.811Z,95999.66
2022-12-20T08:53:55.776Z,95998.13
2022-12-20T08:56:42.794Z,95994.88
2022-12-20T08:59:24.831Z,95998.31
2022-12-20T09:02:18.973Z,95998.38
2022-12-20T09:05:12.804Z,96005.09
2022-12-20T09:08:00.833Z,96003.47
2022-12-20T09:10:40.794Z,95994.78
2022-12-20T09:13:27.771Z,96000.66
2022-12-20T09:16:01.914Z,95992.50
2022-12-20T09:18:48.788Z,95996.28
2022-12-20T09:21:31.071Z,95995.31
2022-12-20T09:24:17.783Z,95996.72
2022-12-20T09:26:57.775Z,95987.31
2022-12-20T09:29:44.803Z,95985.47
2022-12-20T09:32:24.804Z,95978.63
2022-12-20T09:35:22.982Z,95967.75
2022-12-20T09:38:09.791Z,95972.78
2022-12-20T09:40:49.812Z,95976.09
2022-12-20T09:43:40.807Z,95970.06
2022-12-20T09:46:26.872Z,95983.34
2022-12-20T09:49:24.798Z,95977.06
2022-12-20T09:52:36.807Z,95965.31
2022-12-20T09:55:44.802Z,95967.03
2022-12-20T09:58:37.863Z,95956.31
2022-12-20T10:01:37.922Z,95951.28
2022-12-20T10:04:19.061Z,95939.66
2022-12-20T10:07:33.815Z,95940.66
2022-12-20T10:10:31.779Z,95931.78
2022-12-20T10:13:28.822Z,95929.66
2022-12-20T10:16:34.886Z,95925.69
2022-12-20T10:19:37.875Z,95923.34
2022-12-20T10:22:32.810Z,95928.59
2022-12-20T10:25:25.811Z,95927.81
2022-12-20T10:28:19.795Z,95919.41
2022-12-20T10:30:59.820Z,95905.84
2022-12-20T10:33:47.815Z,95905.84
2022-12-20T10:36:33.802Z,95895.81
2022-12-20T10:39:27.822Z,95905.06
2022-12-20T10:42:28.813Z,95904.28
2022-12-20T10:45:03.898Z,95898.47
2022-12-20T10:47:59.832Z,95886.75
2022-12-20T10:50:53.803Z,95888.53
2022-12-20T10:53:41.809Z,95881.91
2022-12-20T10:56:38.899Z,95879.44
2022-12-20T10:59:25.828Z,95881.84
2022-12-20T11:01:58.997Z,95879.31
2022-12-20T11:04:46.805Z,95887.66
2022-12-20T11:07:33.011Z,95875.91
2022-12-20T11:10:28.811Z,95882.50
2022-12-20T11:13:14.820Z,95883.13
2022-12-20T11:16:09.898Z,95873.88
2022-12-20T11:19:15.809Z,95874.78
2022-12-20T11:22:36.816Z,95868.75
2022-12-20T11:25:22.936Z,95857.00
2022-12-20T11:28:31.821Z,95861.19
2022-12-20T11:31:19.928Z,95852.81
2022-12-20T11:34:09.841Z,95857.06
2022-12-20T11:37:26.834Z,95847.88
2022-12-20T11:40:45.819Z,95839.53
2022-12-20T11:44:24.101Z,95845.41
2022-12-20T11:47:08.993Z,95836.19
2022-12-20T11:50:22.831Z,95833.72
2022-12-20T11:53:45.828Z,95831.25
2022-12-20T11:56:44.596Z,95819.41
2022-12-20T11:59:34.053Z,95815.19
2022-12-20T12:02:41.920Z,95809.34
2022-12-20T12:05:39.874Z,95816.91
2022-12-20T12:08:39.835Z,95816.91
2022-12-20T12:14:49.987Z,95826.09
2022-12-20T12:17:48.857Z,95827.84
2022-12-20T12:20:27.938Z,95820.19
2022-12-20T12:23:35.837Z,95805.91
2022-12-20T12:26:22.847Z,95802.66
2022-12-20T12:29:22.853Z,95801.88
2022-12-20T12:32:21.915Z,95816.13
2022-12-20T12:35:24.868Z,95823.66
2022-12-20T12:38:24.897Z,95827.75
2022-12-20T12:41:20.937Z,95821.75
2022-12-20T12:44:46.852Z,95818.31
2022-12-20T12:47:27.935Z,95817.47
2022-12-20T12:50:24.865Z,95804.84
2022-12-20T12:53:03.960Z,95820.84
2022-12-20T12:56:19.151Z,95815.72
2022-12-20T12:59:22.277Z,95818.97
2022-12-20T13:02:27.937Z,95812.88
2022-12-20T13:05:25.842Z,95817.94
2022-12-20T13:08:22.836Z,95814.50
2022-12-20T13:10:55.964Z,95827.88
2022-12-20T13:13:42.862Z,95811.75
2022-12-20T13:16:48.178Z,95809.97
2022-12-20T13:19:32.854Z,95803.25
2022-12-20T13:22:23.074Z,95807.38
2022-12-20T13:25:10.863Z,95804.00
2022-12-20T13:27:49.409Z,95807.31
2022-12-20T13:30:35.937Z,95783.66
2022-12-20T13:33:33.857Z,95793.72
2022-12-20T13:36:23.877Z,95789.47
2022-12-20T13:39:03.013Z,95791.03
2022-12-20T13:42:14.853Z,95789.25
2022-12-20T13:44:58.857Z,95787.44
2022-12-20T13:47:58.872Z,95789.91
2022-12-20T13:50:55.889Z,95794.00
2022-12-20T13:53:33.957Z,95790.75
2022-12-20T13:56:40.896Z,95779.06
2022-12-20T13:59:24.964Z,95782.41
2022-12-20T14:02:24.046Z,95776.44
2022-12-20T14:05:06.036Z,95778.06
2022-12-20T14:08:05.889Z,95782.13
2022-12-20T14:10:40.988Z,95779.50
2022-12-20T14:13:33.869Z,95776.06
2022-12-20T14:16:30.928Z,95767.63
2022-12-20T14:19:21.876Z,95770.00
2022-12-20T14:22:02.454Z,95761.56
2022-12-20T14:24:57.863Z,95766.53
2022-12-20T14:27:44.870Z,95761.41
2022-12-20T14:30:43.954Z,95754.56
2022-12-20T14:33:49.854Z,95756.25
2022-12-20T14:36:43.904Z,95746.94
2022-12-20T14:39:34.898Z,95751.06
2022-12-20T14:42:13.992Z,95754.38
2022-12-20T14:45:09.886Z,95750.94
2022-12-20T14:47:50.910Z,95755.94
2022-12-20T14:50:53.900Z,95763.44
2022-12-20T14:53:40.883Z,95760.03
2022-12-20T14:56:31.276Z,95758.28
2022-12-20T14:59:24.874Z,95769.09
2022-12-20T15:01:59.140Z,95767.38
2022-12-20T15:04:45.898Z,95769.88
2022-12-20T15:07:37.026Z,95760.59
2022-12-20T15:10:23.893Z,95755.50
2022-12-20T15:13:03.878Z,95758.88
2022-12-20T15:15:51.975Z,95758.00
2022-12-20T15:18:27.031Z,95757.16
2022-12-20T15:21:21.898Z,95759.69
2022-12-20T15:23:59.091Z,95755.41
2022-12-20T15:26:45.909Z,95752.81
2022-12-20T15:29:23.012Z,95746.09
2022-12-20T15:32:21.900Z,95742.66
2022-12-20T15:35:01.903Z,95739.25
2022-12-20T15:37:55.910Z,95739.19
2022-12-20T15:40:42.930Z,95745.03
2022-12-20T15:43:31.027Z,95748.38
2022-12-20T15:46:26.990Z,95748.38
2022-12-20T15:49:30.894Z,95749.09
2022-12-20T15:52:26.895Z,95743.09
2022-12-20T15:55:00.016Z,95736.28
2022-12-20T15:57:46.991Z,95742.94
2022-12-20T16:00:21.045Z,95738.66
2022-12-20T16:03:08.979Z,95736.16
2022-12-20T16:05:48.952Z,95742.03
2022-12-20T16:08:42.907Z,95734.34
2022-12-20T16:11:34.885Z,95738.56
2022-12-20T16:14:08.140Z,95744.47
2022-12-20T16:16:56.906Z,95746.13
2022-12-20T16:19:30.058Z,95738.50
2022-12-20T16:22:34.897Z,95732.56
2022-12-20T16:25:19.857Z,95728.34
2022-12-20T16:28:13.922Z,95731.72
2022-12-20T16:31:00.931Z,95740.06
2022-12-20T16:33:34.043Z,95734.25
2022-12-20T16:36:20.908Z,95726.69
2022-12-20T16:38:55.128Z,95729.22
2022-12-20T16:41:41.918Z,95733.41
2022-12-20T16:44:23.023Z,95726.63
2022-12-20T16:47:16.987Z,95735.00
2022-12-20T16:50:10.924Z,95734.19
2022-12-20T16:52:58.936Z,95728.31
2022-12-20T16:55:39.669Z,95725.78
2022-12-20T16:58:52.225Z,95727.47
2022-12-20T17:01:30.082Z,95732.47
2022-12-20T17:04:27.937Z,95732.47
2022-12-20T17:07:14.950Z,95730.88
2022-12-20T17:10:13.008Z,95724.97
2022-12-20T17:13:06.927Z,95715.78
2022-12-20T17:16:00.964Z,95730.88
2022-12-20T17:19:02.949Z,95714.06
2022-12-20T17:24:51.975Z,95723.22
2022-12-20T17:27:38.938Z,95723.19
2022-12-20T17:30:19.964Z,95722.31
2022-12-20T17:33:13.939Z,95727.25
2022-12-20T17:36:00.934Z,95725.53
2022-12-20T17:38:34.056Z,95728.84
2022-12-20T17:41:32.942Z,95727.25
2022-12-20T17:44:09.119Z,95715.41
2022-12-20T17:47:02.958Z,95709.53
2022-12-20T17:49:56.962Z,95696.13
2022-12-20T17:52:50.933Z,95683.63
2022-12-20T17:55:38.947Z,95672.72
2022-12-20T17:58:12.145Z,95681.09
2022-12-20T18:00:59.008Z,95694.63
2022-12-20T18:04:02.761Z,95687.94
2022-12-20T18:06:53.956Z,95692.91
2022-12-20T18:09:40.976Z,95689.59
2022-12-20T18:12:17.108Z,95684.53
2022-12-20T18:15:03.945Z,95682.78
2022-12-20T18:17:37.874Z,95678.63
2022-12-20T18:20:24.956Z,95666.84
2022-12-20T18:23:00.238Z,95658.47
2022-12-20T18:25:46.966Z,95646.66
2022-12-20T18:28:20.079Z,95654.22
2022-12-20T18:31:08.955Z,95663.44
2022-12-20T18:33:43.062Z,95659.25
2022-12-20T18:36:31.979Z,95654.97
2022-12-20T18:39:13.003Z,95662.53
2022-12-20T18:42:06.981Z,95652.47
2022-12-20T18:44:53.964Z,95646.53
2022-12-20T18:47:27.095Z,95641.47
2022-12-20T18:50:13.979Z,95633.94
2022-12-20T18:52:47.370Z,95643.22
2022-12-20T18:55:33.978Z,95647.44
2022-12-20T18:58:07.090Z,95647.41
2022-12-20T19:00:53.995Z,95638.97
2022-12-20T19:03:27.292Z,95640.69
2022-12-20T19:06:13.968Z,95632.31
2022-12-20T19:08:54.927Z,95629.72
2022-12-20T19:11:54.606Z,95642.25
2022-12-20T19:14:50.985Z,95648.03
2022-12-20T19:17:44.987Z,95646.28
2022-12-20T19:20:31.979Z,95643.78
2022-12-20T19:23:05.075Z,95647.91
2022-12-20T19:25:51.982Z,95639.50
2022-12-20T19:28:25.103Z,95636.13
2022-12-20T19:31:22.231Z,95625.97
2022-12-20T19:34:04.997Z,95628.47
2022-12-20T19:37:00.000Z,95625.13
2022-12-20T19:39:46.967Z,95611.69
2022-12-20T19:42:24.964Z,95604.03
2022-12-20T19:45:12.073Z,95604.84
2022-12-20T19:47:45.118Z,95613.22
2022-12-20T19:50:31.978Z,95607.31
2022-12-20T19:53:05.727Z,95608.97
2022-12-20T19:55:58.989Z,95609.72
2022-12-20T19:58:38.984Z,95609.72
2022-12-20T20:01:28.268Z,95620.56
2022-12-20T20:04:05.305Z,95613.84
2022-12-20T20:06:52.042Z,95613.91
2022-12-20T20:09:25.088Z,95612.19
2022-12-20T20:12:11.983Z,95609.66
2022-12-20T20:14:45.862Z,95610.50
2022-12-20T20:17:32.990Z,95596.19
2022-12-20T20:20:06.144Z,95604.56
2022-12-20T20:22:52.989Z,95604.50
2022-12-20T20:25:26.407Z,95598.47
2022-12-20T20:28:13.029Z,95587.34
2022-12-20T20:30:58.038Z,95592.44
2022-12-20T20:33:45.010Z,95591.56
2022-12-20T20:36:37.002Z,95592.44
2022-12-20T20:39:31.032Z,95595.75
2022-12-20T20:42:25.008Z,95594.06
2022-12-20T20:45:12.001Z,95595.72
2022-12-20T20:47:46.142Z,95594.06
2022-12-20T20:50:33.006Z,95590.69
2022-12-20T20:53:07.126Z,95601.63
2022-12-20T20:55:54.015Z,95593.22
2022-12-20T20:58:33.974Z,95590.72
2022-12-20T21:01:29.051Z,95589.03
2022-12-20T21:04:15.992Z,95594.81
2022-12-20T21:06:49.221Z,95579.66
2022-12-20T21:09:36.024Z,95582.25
2022-12-20T21:12:09.363Z,95582.25
2022-12-20T21:15:21.142Z,95566.25
2022-12-20T21:17:49.094Z,95568.00
2022-12-20T21:20:36.018Z,95566.25
2022-12-20T21:23:09.122Z,95557.88
2022-12-20T21:26:04.008Z,95564.59
2022-12-20T21:28:38.168Z,95563.75
2022-12-20T21:31:26.121Z,95553.63
2022-12-20T21:33:59.238Z,95559.50
2022-12-20T21:36:46.034Z,95561.97
2022-12-20T21:39:20.130Z,95554.44
2022-12-20T21:42:07.043Z,95545.19
2022-12-20T21:44:40.136Z,95542.66
2022-12-20T21:47:34.022Z,95535.94
2022-12-20T21:50:28.024Z,95536.72
2022-12-20T21:53:22.027Z,95537.53
2022-12-20T21:56:10.037Z,95532.53
2022-12-20T21:58:43.142Z,95532.53
2022-12-20T22:01:33.159Z,95531.66
2022-12-20T22:04:16.081Z,95521.56
2022-12-20T22:07:03.026Z,95522.47
2022-12-20T22:09:43.014Z,95519.94
2022-12-20T22:12:30.030Z,95516.59
2022-12-20T22:15:10.035Z,95509.06
2022-12-20T22:18:04.058Z,95514.16
2022-12-20T22:20:59.024Z,95509.06
2022-12-20T22:23:47.070Z,95508.22
2022-12-20T22:26:30.052Z,95509.06
2022-12-20T22:29:18.042Z,95497.25
2022-12-20T22:31:59.177Z,95504.72
2022-12-20T22:34:53.022Z,95502.91
2022-12-20T22:37:47.108Z,95484.34
2022-12-20T22:40:41.039Z,95485.09
2022-12-20T22:43:28.046Z,95489.16
2022-12-20T22:49:10.083Z,95488.91
2022-12-20T22:51:43.211Z,95477.97
2022-12-20T22:54:30.050Z,95471.97
2022-12-20T22:57:03.200Z,95467.72
2022-12-20T22:59:50.095Z,95468.47
2022-12-20T23:02:23.308Z,95466.72
2022-12-20T23:05:10.045Z,95452.41
2022-12-20T23:07:43.213Z,95455.69
2022-12-20T23:10:48.072Z,95462.25
2022-12-20T23:13:39.767Z,95456.31
2022-12-20T23:16:31.139Z,95446.19
2022-12-20T23:19:07.263Z,95443.66
2022-12-20T23:22:13.083Z,95440.25
2022-12-20T23:24:46.138Z,95444.38
2022-12-20T23:27:33.086Z,95436.75
2022-12-20T23:30:07.158Z,95431.56
2022-12-20T23:32:54.045Z,95432.28
2022-12-20T23:35:27.215Z,95427.13
2022-12-20T23:38:14.060Z,95425.38
2022-12-20T23:40:47.148Z,95425.28
2022-12-20T23:43:37.091Z,95422.69
2022-12-20T23:46:19.111Z,95425.88
2022-12-20T23:49:13.072Z,95426.66
2022-12-20T23:52:07.080Z,95406.44
2022-12-20T23:54:54.098Z,95406.28
2022-12-20T23:57:34.096Z,95405.44
